Terminal Aerodrome Forecast
Issued by NWS

Home | Current Version | Previous Version | Text Only | Print | Product List | Glossary On
Versions: 1 2 3 4 5 6 7 8 9 10 11 12 13 14 15 16 17 18
505
FTUS41 KPHI 261120
TAFPNE
TAF
KPNE 261120Z 2612/2712 08010KT P6SM BKN012 OVC040
     FM261400 07010G18KT 6SM -DZ BR OVC010
     FM262000 09012KT 3SM -DZ BR OVC004
     FM270200 10007KT 5SM -SHRA BR OVC010=

USA.gov is the U.S. government's official web portal to all federal, state and local government web resources and services.